Portada
METAR-TAF:

METAR-TAF

Aeropuertos :

Aeropuerto Internacional Hamad

Doha, Qatar

latitud: 25-16-23N, longitud: 51-36-29E, altitud: 4 m

Observación

El informe se hizo hace 1 hora y 12 minutos, a las 11:00 UTC
Viento 19 kt del noroeste
Temperatura 24°C
Humedad 25%
Presión 1017 hPa
Visibilidad 10 km o más
sin nubes por debajo de 1500 m y sin presencia de cumulonimbus.

METAR: OTHH 271100Z AUTO 32019KT CAVOK 24/03 Q1017 NOSIG

Hora: 15:12 (12:12 UTC)

Pronóstico

El informe se hizo hace 1 hora y 12 minutos, a las 11:00 UTC
Pronóstico válido del 27 a las 12 UTC al 28 a las 18 UTC
Viento 16 kt del norte-noroeste
Visibilidad: 8000 m
Probabilidad 30% :
Temporalmente
del 27 a las 12 UTC al 27 a las 16 UTC
Viento 18 kt del noroeste con ráfagas de 28 kt
Visibilidad: 5000 m
Ventisca alta de polvo

TAF: OTHH 271100Z 2712/2818 33016KT 8000 NSC PROB30 TEMPO 2712/2716 32018G28KT 5000 BLDU

Observaciones y pronósticos meteorológicos de más de 4000 aeropuertos (mensajes METAR y TAF).

Los puntos amarillos y rojos representan las estaciones disponibles.

Ponga el ratón en el punto deseado para ver el nombre de la estación.

Haga clic para ver las observaciones y los pronósticos meteorológicos.

Para cambiar el mapa : haga clic en los botones verdes con una cruz de color negro para hacer un zoom, en el botón verde con un guión para alejar o en las flechas verdes para mapas adyacentes.


METAR-TAF: